createdAt,value
2017-11-01T00:00:01.866Z,17.27
2017-11-01T00:02:29.375Z,16.67
2017-11-01T00:04:56.921Z,17.30
2017-11-01T00:07:25.440Z,17.40
2017-11-01T00:09:52.947Z,17.30
2017-11-01T00:12:20.456Z,15.73
2017-11-01T00:14:48.546Z,16.10
2017-11-01T00:17:16.051Z,16.37
2017-11-01T00:19:43.550Z,14.93
2017-11-01T00:22:11.182Z,15.97
2017-11-01T00:24:38.683Z,15.90
2017-11-01T00:27:06.179Z,14.50
2017-11-01T00:29:33.843Z,15.77
2017-11-01T00:32:01.342Z,16.07
2017-11-01T00:34:28.841Z,15.87
2017-11-01T00:36:56.417Z,19.57
2017-11-01T00:39:24.030Z,18.00
2017-11-01T00:41:51.526Z,17.30
2017-11-01T00:44:19.335Z,15.90
2017-11-01T00:46:46.835Z,17.57
2017-11-01T00:49:14.338Z,17.23
2017-11-01T00:51:42.144Z,14.67
2017-11-01T00:54:09.839Z,15.70
2017-11-01T00:56:37.452Z,17.17
2017-11-01T00:59:05.330Z,16.30
2017-11-01T01:01:32.840Z,16.30
2017-11-01T01:04:00.347Z,15.80
2017-11-01T01:06:28.273Z,13.87
2017-11-01T01:08:55.774Z,15.37
2017-11-01T01:11:23.411Z,16.60
2017-11-01T01:13:51.644Z,16.07
2017-11-01T01:16:19.396Z,15.23
2017-11-01T01:18:46.977Z,14.23
2017-11-01T01:21:15.344Z,16.40
2017-11-01T01:23:42.939Z,15.70
2017-11-01T01:26:10.456Z,15.57
2017-11-01T01:28:38.305Z,14.90
2017-11-01T01:31:05.912Z,15.23
2017-11-01T01:33:33.414Z,13.83
2017-11-01T01:36:01.322Z,13.97
2017-11-01T01:38:28.933Z,15.30
2017-11-01T01:40:56.482Z,14.93
2017-11-01T01:43:24.087Z,14.37
2017-11-01T01:45:51.592Z,16.70
2017-11-01T01:48:19.233Z,15.13
2017-11-01T01:50:47.190Z,14.43
2017-11-01T01:53:15.471Z,14.60
2017-11-01T01:55:44.039Z,13.00
2017-11-01T01:58:12.002Z,15.80
2017-11-01T02:00:39.505Z,16.00
2017-11-01T02:03:07.001Z,14.60
2017-11-01T02:05:34.870Z,15.20
2017-11-01T02:08:02.605Z,14.87
2017-11-01T02:10:30.160Z,14.63
2017-11-01T02:12:57.901Z,14.03
2017-11-01T02:15:25.523Z,13.93
2017-11-01T02:17:53.152Z,14.60
2017-11-01T02:20:20.712Z,14.60
2017-11-01T02:22:48.627Z,14.27
2017-11-01T02:25:16.146Z,14.37
2017-11-01T02:27:43.702Z,13.70
2017-11-01T02:30:11.207Z,13.00
2017-11-01T02:32:38.707Z,15.37
2017-11-01T02:35:06.495Z,16.03
2017-11-01T02:37:34.026Z,14.43
2017-11-01T02:40:01.518Z,16.27
2017-11-01T02:42:29.097Z,15.50
2017-11-01T02:44:56.643Z,14.40
2017-11-01T02:47:24.150Z,14.57
2017-11-01T02:49:51.707Z,13.80
2017-11-01T02:52:19.972Z,16.87
2017-11-01T02:54:48.260Z,12.80
2017-11-01T02:57:16.368Z,12.30
2017-11-01T02:59:43.919Z,14.57
2017-11-01T03:02:11.422Z,14.50
2017-11-01T03:04:39.214Z,13.70
2017-11-01T03:07:06.775Z,14.10
2017-11-01T03:09:35.035Z,13.87
2017-11-01T03:12:02.582Z,13.30
2017-11-01T03:14:30.274Z,14.07
2017-11-01T03:16:57.945Z,12.70
2017-11-01T03:19:26.797Z,14.33
2017-11-01T03:21:54.302Z,14.27
2017-11-01T03:24:21.839Z,13.70
2017-11-01T03:29:23.719Z,13.53
2017-11-01T03:31:51.667Z,13.83
2017-11-01T03:34:19.166Z,13.10
2017-11-01T03:36:46.907Z,11.70
2017-11-01T03:39:14.487Z,12.37
2017-11-01T03:41:42.024Z,13.97
2017-11-01T03:44:09.531Z,13.10
2017-11-01T03:46:37.519Z,15.17
2017-11-01T03:49:05.026Z,12.50
2017-11-01T03:51:32.547Z,12.73
2017-11-01T03:54:00.107Z,12.60
2017-11-01T03:56:27.618Z,13.90
2017-11-01T03:58:55.671Z,11.60
2017-11-01T04:01:23.251Z,12.57
2017-11-01T04:03:50.759Z,14.23
2017-11-01T04:06:18.296Z,14.10
2017-11-01T04:08:46.023Z,13.57
2017-11-01T04:11:13.536Z,12.47
2017-11-01T04:13:41.098Z,13.40
2017-11-01T04:16:08.910Z,13.00
2017-11-01T04:18:38.503Z,13.40
2017-11-01T04:21:06.800Z,12.73
2017-11-01T04:23:34.763Z,13.90
2017-11-01T04:26:02.311Z,11.53
2017-11-01T04:28:30.579Z,13.03
2017-11-01T04:30:59.216Z,14.97
2017-11-01T04:33:26.760Z,12.47
2017-11-01T04:35:54.531Z,11.97
2017-11-01T04:38:22.102Z,12.10
2017-11-01T04:40:49.664Z,11.83
2017-11-01T04:43:17.163Z,13.73
2017-11-01T04:45:45.739Z,15.77
2017-11-01T04:48:13.278Z,13.63
2017-11-01T04:50:40.836Z,12.70
2017-11-01T04:53:08.452Z,13.80
2017-11-01T04:55:38.879Z,13.67
2017-11-01T04:58:06.418Z,11.90
2017-11-01T05:00:34.722Z,12.20
2017-11-01T05:03:04.649Z,11.70
2017-11-01T05:05:32.452Z,12.40
2017-11-01T05:07:59.955Z,13.00
2017-11-01T05:10:27.482Z,12.10
2017-11-01T05:12:55.533Z,11.90
2017-11-01T05:15:23.115Z,12.73
2017-11-01T05:17:51.382Z,12.40
2017-11-01T05:20:19.059Z,12.13
2017-11-01T05:22:47.335Z,12.60
2017-11-01T05:25:21.551Z,13.00
2017-11-01T05:27:49.827Z,12.57
2017-11-01T05:30:18.098Z,14.30
2017-11-01T05:32:46.768Z,13.17
2017-11-01T05:35:15.079Z,11.97
2017-11-01T05:37:43.346Z,12.20
2017-11-01T05:40:11.987Z,11.97
2017-11-01T05:42:39.729Z,11.50
2017-11-01T05:45:07.231Z,13.23
2017-11-01T05:47:34.834Z,12.13
2017-11-01T05:50:02.335Z,14.17
2017-11-01T05:52:29.847Z,13.87
2017-11-01T05:54:57.415Z,13.57
2017-11-01T05:57:24.928Z,13.80
2017-11-01T05:59:52.426Z,15.73
2017-11-01T06:02:20.111Z,13.87
2017-11-01T06:04:47.654Z,13.07
2017-11-01T06:07:18.049Z,13.70
2017-11-01T06:09:45.851Z,12.60
2017-11-01T06:12:13.354Z,11.90
2017-11-01T06:14:40.873Z,12.20
2017-11-01T06:17:08.723Z,11.87
2017-11-01T06:19:36.231Z,12.27
2017-11-01T06:22:03.771Z,12.10
2017-11-01T06:24:31.570Z,12.37
2017-11-01T06:26:59.066Z,14.40
2017-11-01T06:29:26.558Z,13.10
2017-11-01T06:31:54.347Z,14.40
2017-11-01T06:34:21.867Z,11.43
2017-11-01T06:36:49.513Z,13.00
2017-11-01T06:39:17.395Z,12.90
2017-11-01T06:41:44.902Z,14.10
2017-11-01T06:44:12.448Z,16.90
2017-11-01T06:46:40.584Z,25.13
2017-11-01T06:49:08.091Z,18.23
2017-11-01T06:51:35.603Z,16.27
2017-11-01T06:54:03.478Z,15.00
2017-11-01T06:56:31.279Z,15.37
2017-11-01T06:58:58.817Z,13.93
2017-11-01T07:01:26.371Z,13.87
2017-11-01T07:03:53.963Z,13.23
2017-11-01T07:06:21.523Z,13.03
2017-11-01T07:08:49.083Z,13.30
2017-11-01T07:11:16.587Z,13.60
2017-11-01T07:13:44.099Z,12.23
2017-11-01T07:16:12.250Z,11.83
2017-11-01T07:18:40.782Z,11.30
2017-11-01T07:21:08.939Z,12.90
2017-11-01T07:23:36.531Z,14.20
2017-11-01T07:26:04.107Z,12.70
2017-11-01T07:28:31.997Z,14.50
2017-11-01T07:31:00.652Z,13.70
2017-11-01T07:33:28.665Z,12.43
2017-11-01T07:35:56.283Z,12.90
2017-11-01T07:38:24.307Z,11.43
2017-11-01T07:40:52.897Z,13.80
2017-11-01T07:43:20.966Z,13.07
2017-11-01T07:45:48.795Z,11.07
2017-11-01T07:48:16.420Z,13.20
2017-11-01T07:50:43.934Z,14.00
2017-11-01T07:53:11.840Z,12.97
2017-11-01T07:55:39.349Z,13.87
2017-11-01T07:58:07.059Z,13.40
2017-11-01T08:00:35.219Z,14.90
2017-11-01T08:03:02.855Z,13.97
2017-11-01T08:05:30.394Z,12.20
2017-11-01T08:07:58.706Z,11.50
2017-11-01T08:10:26.484Z,13.07
2017-11-01T08:12:54.024Z,11.40
2017-11-01T08:15:21.883Z,12.50
2017-11-01T08:17:49.680Z,12.47
2017-11-01T08:20:17.470Z,12.63
2017-11-01T08:22:45.344Z,12.50
2017-11-01T08:25:13.327Z,14.50
2017-11-01T08:27:41.191Z,10.60
2017-11-01T08:30:09.097Z,11.73
2017-11-01T08:32:37.789Z,12.03
2017-11-01T08:35:05.500Z,12.13
2017-11-01T08:37:33.549Z,12.20
2017-11-01T08:40:01.668Z,13.50
2017-11-01T08:42:29.239Z,13.40
2017-11-01T08:44:57.107Z,13.60
2017-11-01T08:47:24.621Z,11.30
2017-11-01T08:49:52.147Z,12.70
2017-11-01T08:52:19.951Z,12.87
2017-11-01T08:54:47.644Z,12.50
2017-11-01T08:57:15.494Z,10.80
2017-11-01T08:59:43.396Z,13.37
2017-11-01T09:02:10.992Z,12.87
2017-11-01T09:04:38.531Z,11.43
2017-11-01T09:07:06.251Z,12.47
2017-11-01T09:09:33.771Z,13.30
2017-11-01T09:12:01.279Z,12.03
2017-11-01T09:14:28.849Z,11.50
2017-11-01T09:16:56.383Z,11.33
2017-11-01T09:19:23.903Z,11.43
2017-11-01T09:21:51.702Z,11.27
2017-11-01T09:24:19.235Z,10.53
2017-11-01T09:26:46.771Z,11.50
2017-11-01T09:29:15.389Z,11.80
2017-11-01T09:31:42.931Z,12.37
2017-11-01T09:34:10.636Z,12.20
2017-11-01T09:36:38.958Z,12.07
2017-11-01T09:39:06.469Z,13.57
2017-11-01T09:41:34.007Z,11.80
2017-11-01T09:44:01.896Z,11.50
2017-11-01T09:46:29.398Z,12.93
2017-11-01T09:48:57.095Z,13.30
2017-11-01T09:51:24.675Z,11.87
2017-11-01T09:53:52.268Z,11.30
2017-11-01T09:56:19.779Z,13.50
2017-11-01T09:58:47.355Z,11.73
2017-11-01T10:01:14.859Z,13.10
2017-11-01T10:03:43.992Z,12.50
2017-11-01T10:06:11.557Z,12.57
2017-11-01T10:08:39.098Z,12.53
2017-11-01T10:11:06.607Z,10.97
2017-11-01T10:13:34.189Z,11.07
2017-11-01T10:16:02.467Z,15.70
2017-11-01T10:18:29.966Z,18.03
2017-11-01T10:20:57.564Z,12.90
2017-11-01T10:23:25.102Z,14.63
2017-11-01T10:25:52.663Z,12.43
2017-11-01T10:28:20.210Z,13.17
2017-11-01T10:30:47.710Z,12.07
2017-11-01T10:33:15.219Z,12.57
2017-11-01T10:35:43.139Z,13.10
2017-11-01T10:38:10.659Z,11.50
2017-11-01T10:40:38.670Z,10.50
2017-11-01T10:43:06.194Z,11.57
2017-11-01T10:45:33.869Z,11.73
2017-11-01T10:48:01.476Z,10.17
2017-11-01T10:50:29.779Z,11.10
2017-11-01T10:52:57.298Z,12.73
2017-11-01T10:55:25.280Z,10.47
2017-11-01T10:57:53.608Z,13.10
2017-11-01T11:00:21.140Z,10.43
2017-11-01T11:02:48.778Z,10.77
2017-11-01T11:05:16.387Z,13.53
2017-11-01T11:07:44.054Z,11.10
2017-11-01T11:10:12.128Z,10.43
2017-11-01T11:12:39.991Z,12.40
2017-11-01T11:15:07.799Z,9.63
2017-11-01T11:17:36.453Z,11.23
2017-11-01T11:20:04.000Z,10.67
2017-11-01T11:22:31.508Z,10.93
2017-11-01T11:24:59.292Z,11.10
2017-11-01T11:27:26.827Z,10.87
2017-11-01T11:29:54.355Z,10.13
2017-11-01T11:32:22.170Z,10.50
2017-11-01T11:34:50.411Z,12.53
2017-11-01T11:37:17.924Z,12.60
2017-11-01T11:39:45.887Z,11.63
2017-11-01T11:42:13.393Z,12.30
2017-11-01T11:44:40.971Z,12.10
2017-11-01T11:47:09.345Z,12.10
2017-11-01T11:49:37.010Z,10.90
2017-11-01T11:52:04.553Z,10.30
2017-11-01T11:54:32.198Z,10.33
2017-11-01T11:56:59.702Z,11.80
2017-11-01T11:59:28.434Z,11.10
2017-11-01T12:01:56.291Z,11.23
2017-11-01T12:04:23.802Z,11.77
2017-11-01T12:06:51.310Z,11.20
2017-11-01T12:09:19.163Z,12.90
2017-11-01T12:11:46.739Z,11.70
2017-11-01T12:14:14.334Z,10.77
2017-11-01T12:16:42.147Z,10.87
2017-11-01T12:19:09.688Z,10.10
2017-11-01T12:21:38.695Z,10.03
2017-11-01T12:24:06.676Z,10.27
2017-11-01T12:26:34.233Z,10.30
2017-11-01T12:29:01.743Z,11.90
2017-11-01T12:31:29.290Z,10.73
2017-11-01T12:33:56.795Z,12.67
2017-11-01T12:36:24.318Z,11.00
2017-11-01T12:38:52.426Z,12.33
2017-11-01T12:41:19.954Z,13.00
2017-11-01T12:43:47.632Z,11.57
2017-11-01T12:46:15.195Z,10.77
2017-11-01T12:48:43.741Z,11.37
2017-11-01T12:51:11.354Z,13.03
2017-11-01T12:53:39.147Z,10.80
2017-11-01T12:56:07.412Z,11.80
2017-11-01T12:58:35.212Z,11.33
2017-11-01T13:01:03.132Z,12.43
2017-11-01T13:03:30.674Z,11.33
2017-11-01T13:05:59.231Z,11.60
2017-11-01T13:08:27.170Z,9.83
2017-11-01T13:10:54.741Z,10.73
2017-11-01T13:13:22.883Z,10.70
2017-11-01T13:15:50.443Z,10.23
2017-11-01T13:18:18.148Z,10.63
2017-11-01T13:20:46.263Z,10.63
2017-11-01T13:23:14.937Z,10.60
2017-11-01T13:25:43.497Z,9.37
2017-11-01T13:28:11.150Z,9.67
2017-11-01T13:30:38.803Z,8.50
2017-11-01T13:33:06.313Z,10.60
2017-11-01T13:35:33.844Z,9.73
2017-11-01T13:38:01.531Z,11.10
2017-11-01T13:40:29.037Z,8.40
2017-11-01T13:42:56.599Z,8.90
2017-11-01T13:45:24.422Z,8.40
2017-11-01T13:47:51.927Z,8.13
2017-11-01T13:50:19.439Z,6.23
2017-11-01T13:52:47.131Z,8.30
2017-11-01T13:55:14.918Z,8.40
2017-11-01T13:57:42.475Z,6.60
2017-11-01T14:00:10.432Z,3.83
2017-11-01T14:02:38.103Z,5.37
2017-11-01T14:05:05.671Z,5.40
2017-11-01T14:07:33.243Z,5.00
2017-11-01T14:10:00.743Z,5.50
2017-11-01T14:12:28.239Z,5.70
2017-11-01T14:14:55.919Z,6.50
2017-11-01T14:17:23.419Z,5.30
2017-11-01T14:19:50.924Z,5.63
2017-11-01T14:22:18.611Z,4.80
2017-11-01T14:24:46.152Z,5.40
2017-11-01T14:27:13.661Z,5.53
2017-11-01T14:29:41.535Z,5.60
2017-11-01T14:32:09.075Z,6.30
2017-11-01T14:34:36.678Z,5.53
2017-11-01T14:37:04.562Z,5.07
2017-11-01T14:39:32.067Z,5.57
2017-11-01T14:41:59.570Z,5.80
2017-11-01T14:44:28.334Z,5.97
2017-11-01T14:46:55.835Z,5.57
2017-11-01T14:49:23.335Z,6.40
2017-11-01T14:51:50.982Z,8.07
2017-11-01T14:54:18.483Z,6.30
2017-11-01T14:56:46.051Z,7.20
2017-11-01T14:59:14.064Z,6.70
2017-11-01T15:01:42.407Z,7.83
2017-11-01T15:04:09.967Z,7.20
2017-11-01T15:06:37.724Z,7.77
2017-11-01T15:09:05.331Z,6.47
2017-11-01T15:11:33.596Z,7.10
2017-11-01T15:14:01.142Z,7.53
2017-11-01T15:16:28.646Z,6.40
2017-11-01T15:18:56.239Z,7.40
2017-11-01T15:21:23.811Z,7.90
2017-11-01T15:23:51.338Z,7.57
2017-11-01T15:26:19.063Z,8.03
2017-11-01T15:28:47.007Z,7.30
2017-11-01T15:31:14.506Z,8.40
2017-11-01T15:33:42.011Z,6.77
2017-11-01T15:36:09.907Z,7.20
2017-11-01T15:38:37.562Z,8.50
2017-11-01T15:41:05.062Z,6.90
2017-11-01T15:43:32.622Z,6.43
2017-11-01T15:46:00.152Z,6.50
2017-11-01T15:48:27.727Z,5.63
2017-11-01T15:50:56.051Z,7.20
2017-11-01T15:53:23.548Z,7.30
2017-11-01T15:55:51.082Z,6.30
2017-11-01T15:58:19.217Z,6.40
2017-11-01T16:00:46.731Z,8.47
2017-11-01T16:03:14.495Z,11.10
2017-11-01T16:05:42.039Z,18.90
2017-11-01T16:08:09.551Z,15.93
2017-11-01T16:10:37.143Z,18.27
2017-11-01T16:13:04.928Z,19.80
2017-11-01T16:15:32.459Z,18.37
2017-11-01T16:17:59.963Z,14.97
2017-11-01T16:20:28.024Z,16.80
2017-11-01T16:22:55.549Z,19.20
2017-11-01T16:25:23.047Z,13.23
2017-11-01T16:27:50.594Z,15.10
2017-11-01T16:30:18.100Z,23.40
2017-11-01T16:32:45.680Z,14.10
2017-11-01T16:35:13.591Z,13.63
2017-11-01T16:37:41.123Z,14.27
2017-11-01T16:40:08.627Z,13.70
2017-11-01T16:42:37.279Z,13.20
2017-11-01T16:45:04.798Z,13.20
2017-11-01T16:47:32.467Z,13.40
2017-11-01T16:50:00.020Z,15.07
2017-11-01T16:52:27.607Z,13.40
2017-11-01T16:54:55.115Z,15.17
2017-11-01T16:57:23.142Z,14.90
2017-11-01T16:59:50.655Z,14.10
2017-11-01T17:02:18.155Z,13.30
2017-11-01T17:04:46.007Z,14.03
2017-11-01T17:07:13.798Z,11.57
2017-11-01T17:09:41.395Z,13.50
2017-11-01T17:12:10.007Z,13.93
2017-11-01T17:14:37.507Z,14.50
2017-11-01T17:17:05.267Z,16.37
2017-11-01T17:19:33.146Z,14.00
2017-11-01T17:22:00.659Z,14.63
2017-11-01T17:24:28.172Z,15.57
2017-11-01T17:26:56.492Z,15.00
2017-11-01T17:29:24.023Z,15.90
2017-11-01T17:31:51.601Z,13.17
2017-11-01T17:34:19.199Z,17.07
2017-11-01T17:36:46.696Z,19.07
2017-11-01T17:39:14.982Z,16.80
2017-11-01T17:41:43.691Z,18.60
2017-11-01T17:44:11.238Z,16.60
2017-11-01T17:46:38.883Z,17.80
2017-11-01T17:49:06.435Z,18.10
2017-11-01T17:51:34.827Z,20.87
2017-11-01T17:54:02.357Z,17.57
2017-11-01T17:56:29.916Z,21.53
2017-11-01T17:58:57.451Z,22.27
2017-11-01T18:01:24.962Z,21.47
2017-11-01T18:03:53.583Z,18.23
2017-11-01T18:06:21.152Z,15.97
2017-11-01T18:08:48.651Z,15.70
2017-11-01T18:11:16.444Z,14.80
2017-11-01T18:13:44.129Z,13.50
2017-11-01T18:16:11.627Z,14.53
2017-11-01T18:18:39.567Z,14.80
2017-11-01T18:21:07.071Z,16.17
2017-11-01T18:23:35.353Z,15.73
2017-11-01T18:26:03.966Z,15.87
2017-11-01T18:28:31.490Z,23.83
2017-11-01T18:30:59.758Z,34.27
2017-11-01T18:33:27.306Z,32.10
2017-11-01T18:35:54.816Z,29.03
2017-11-01T18:38:22.323Z,23.00
2017-11-01T18:40:50.223Z,23.17
2017-11-01T18:43:17.730Z,21.70
2017-11-01T18:45:45.232Z,19.03
2017-11-01T18:48:13.183Z,20.27
2017-11-01T18:50:40.738Z,24.80
2017-11-01T18:53:08.280Z,21.67
2017-11-01T18:55:35.827Z,23.60
2017-11-01T18:58:03.326Z,19.67
2017-11-01T19:00:30.843Z,21.37
2017-11-01T19:02:58.414Z,17.90
2017-11-01T19:05:25.940Z,21.10
2017-11-01T19:07:53.490Z,20.60
2017-11-01T19:10:22.239Z,21.40
2017-11-01T19:12:49.827Z,20.10
2017-11-01T19:15:18.096Z,20.67
2017-11-01T19:17:46.432Z,19.40
2017-11-01T19:20:13.955Z,20.80
2017-11-01T19:22:41.498Z,20.70
2017-11-01T19:25:10.156Z,23.03
2017-11-01T19:27:37.711Z,21.40
2017-11-01T19:30:05.319Z,20.40
2017-11-01T19:32:33.449Z,20.53
2017-11-01T19:35:01.053Z,19.87
2017-11-01T19:37:28.560Z,18.80
2017-11-01T19:39:56.227Z,19.93
2017-11-01T19:42:23.735Z,20.20
2017-11-01T19:44:51.522Z,18.30
2017-11-01T19:47:19.113Z,16.03
2017-11-01T19:49:47.415Z,13.17
2017-11-01T19:52:15.683Z,12.70
2017-11-01T19:54:44.015Z,15.23
2017-11-01T19:57:11.557Z,16.40
2017-11-01T19:59:39.199Z,15.07
2017-11-01T20:02:07.003Z,15.47
2017-11-01T20:04:34.556Z,16.23
2017-11-01T20:07:02.067Z,15.87
2017-11-01T20:09:30.393Z,19.10
2017-11-01T20:11:58.148Z,17.50
2017-11-01T20:14:25.670Z,16.70
2017-11-01T20:16:53.571Z,16.27
2017-11-01T20:19:21.079Z,15.17
2017-11-01T20:21:48.619Z,17.83
2017-11-01T20:24:16.199Z,16.43
2017-11-01T20:26:43.747Z,16.57
2017-11-01T20:29:11.254Z,16.93
2017-11-01T20:31:39.082Z,17.13
2017-11-01T20:34:07.708Z,17.27
2017-11-01T20:36:35.227Z,16.40
2017-11-01T20:39:02.904Z,19.07
2017-11-01T20:41:31.375Z,16.60
2017-11-01T20:43:59.059Z,16.27
2017-11-01T20:46:27.746Z,16.53
2017-11-01T20:48:55.270Z,18.47
2017-11-01T20:51:23.320Z,18.27
2017-11-01T20:53:51.191Z,17.10
2017-11-01T20:56:18.907Z,18.70
2017-11-01T20:58:46.407Z,18.27
2017-11-01T21:01:13.915Z,17.10
2017-11-01T21:03:41.623Z,21.47
2017-11-01T21:06:09.403Z,17.77
2017-11-01T21:08:36.986Z,17.40
2017-11-01T21:11:05.370Z,18.70
2017-11-01T21:13:32.871Z,19.47
2017-11-01T21:16:00.395Z,20.43
2017-11-01T21:18:28.423Z,17.37
2017-11-01T21:20:55.966Z,16.97
2017-11-01T21:23:24.635Z,17.87
2017-11-01T21:25:52.371Z,17.77
2017-11-01T21:28:21.667Z,20.27
2017-11-01T21:30:49.218Z,16.43
2017-11-01T21:33:17.399Z,19.47
2017-11-01T21:35:46.722Z,18.20
2017-11-01T21:38:14.984Z,17.67
2017-11-01T21:40:44.315Z,20.97
2017-11-01T21:43:12.262Z,19.10
2017-11-01T21:45:40.306Z,17.17
2017-11-01T21:48:08.402Z,20.40
2017-11-01T21:50:36.052Z,18.03
2017-11-01T21:53:03.574Z,20.07
2017-11-01T21:55:31.106Z,18.80
2017-11-01T21:57:58.930Z,20.33
2017-11-01T22:00:27.099Z,19.70
2017-11-01T22:02:54.679Z,17.93
2017-11-01T22:05:23.206Z,20.07
2017-11-01T22:07:52.412Z,18.47
2017-11-01T22:10:21.160Z,20.53
2017-11-01T22:12:48.883Z,21.93
2017-11-01T22:15:16.718Z,20.33
2017-11-01T22:17:44.231Z,20.60
2017-11-01T22:20:12.457Z,19.80
2017-11-01T22:22:40.587Z,22.17
2017-11-01T22:25:08.685Z,20.57
2017-11-01T22:27:36.869Z,18.20
2017-11-01T22:30:04.440Z,21.77
2017-11-01T22:32:32.116Z,19.77
2017-11-01T22:34:59.906Z,18.73
2017-11-01T22:37:27.541Z,18.20
2017-11-01T22:39:55.270Z,19.70
2017-11-01T22:42:23.774Z,19.07
2017-11-01T22:44:51.577Z,16.60
2017-11-01T22:47:19.466Z,17.67
2017-11-01T22:49:47.664Z,15.33
2017-11-01T22:52:16.244Z,17.07
2017-11-01T22:54:43.978Z,15.13
2017-11-01T22:57:12.144Z,15.77
2017-11-01T22:59:39.993Z,16.13
2017-11-01T23:02:07.509Z,16.03
2017-11-01T23:04:35.026Z,14.47
2017-11-01T23:07:03.202Z,16.37
2017-11-01T23:09:30.748Z,17.47
2017-11-01T23:11:58.255Z,14.63
2017-11-01T23:14:25.811Z,17.30
2017-11-01T23:16:53.512Z,15.00
2017-11-01T23:19:21.284Z,14.80
2017-11-01T23:21:49.153Z,14.70
2017-11-01T23:24:16.912Z,16.90
2017-11-01T23:26:45.364Z,15.80
2017-11-01T23:29:13.246Z,14.83
2017-11-01T23:31:41.066Z,18.03
2017-11-01T23:34:08.783Z,15.73
2017-11-01T23:36:37.288Z,17.77
2017-11-01T23:39:04.831Z,15.43
2017-11-01T23:41:32.597Z,15.63
2017-11-01T23:44:01.346Z,16.00
2017-11-01T23:46:29.524Z,16.70
2017-11-01T23:48:57.436Z,18.47
2017-11-01T23:51:25.707Z,17.23
2017-11-01T23:53:53.999Z,19.10
2017-11-01T23:56:21.732Z,17.43
2017-11-01T23:58:49.649Z,15.20
